Terminal Aerodrome Forecast
Issued by NWS

Home | Current Version | Previous Version | Text Only | Print | Product List | Glossary On
Versions: 1 2 3 4 5 6 7 8 9 10 11 12 13 14 15
000
FTUS44 KJAN 022300
TAFGTR
TAF
KGTR 022320Z 0300/0324 03006KT 6SM BR OVC005
     FM030100 VRB05KT 4SM -DZ BR OVC005
     FM030500 12005KT 2SM BR OVC003
     FM030900 14007KT 1SM BR OVC001
     FM031000 17008KT 4SM BR OVC003
     FM032100 18008KT 6SM BR OVC007=

USA.gov is the U.S. government's official web portal to all federal, state and local government web resources and services.